Time;durP1;ratioP1;P1;durP2;ratioP2;P2;SDS_P1;SDS_P2;PMS_P1;PMS_P2;Temp;Humidity;BMP_temperature;BMP_pressure;BME280_temperature;BME280_humidity;BME280_pressure;Samples;Min_cycle;Max_cycle;Signal;HPM_P1;HPM_P2
2021/09/14 00:01:05;;;;;;;4.15;1.98;;;21.80;99.90;;;;;;4993853;28;20057;-77
2021/09/14 00:03:31;;;;;;;0.57;0.40;;;21.70;99.90;;;;;;4994074;28;20072;-77
2021/09/14 00:05:58;;;;;;;2.08;1.15;;;21.70;99.90;;;;;;4993962;28;20026;-77
2021/09/14 00:08:24;;;;;;;0.85;0.85;;;21.60;99.90;;;;;;4993623;28;20030;-77
2021/09/14 00:10:50;;;;;;;0.57;0.40;;;21.60;99.90;;;;;;4993928;28;20031;-77
2021/09/14 00:13:16;;;;;;;0.25;0.25;;;21.60;99.90;;;;;;4993428;28;20026;-77
2021/09/14 00:15:41;;;;;;;6.68;2.67;;;21.60;99.90;;;;;;4993773;28;20103;-77
2021/09/14 00:18:07;;;;;;;0.85;0.82;;;21.50;99.90;;;;;;4993675;28;20022;-76
2021/09/14 00:20:33;;;;;;;0.77;0.68;;;21.50;99.90;;;;;;5009275;28;20105;-77
2021/09/14 00:22:58;;;;;;;0.52;0.52;;;21.50;99.90;;;;;;5013575;28;20139;-77
2021/09/14 00:25:24;;;;;;;1.13;1.00;;;21.50;99.90;;;;;;5012797;28;20022;-77
2021/09/14 00:27:50;;;;;;;0.38;0.38;;;21.50;99.90;;;;;;5012968;28;20460;-77
2021/09/14 00:30:15;;;;;;;0.70;0.52;;;21.40;99.90;;;;;;5004641;28;20030;-77
2021/09/14 00:32:41;;;;;;;2.08;1.17;;;21.40;99.90;;;;;;4993068;28;20077;-77
2021/09/14 00:35:07;;;;;;;4.47;2.28;;;21.30;99.90;;;;;;4993691;28;20027;-78
2021/09/14 00:37:33;;;;;;;0.50;0.50;;;21.20;99.90;;;;;;4993475;28;20018;-77
2021/09/14 00:39:58;;;;;;;2.58;1.27;;;21.10;99.90;;;;;;4993446;28;20023;-77
2021/09/14 00:42:24;;;;;;;4.65;0.68;;;21.00;99.90;;;;;;4992513;28;20486;-77
2021/09/14 00:44:50;;;;;;;1.63;1.02;;;20.90;99.90;;;;;;4993210;28;20034;-77
2021/09/14 00:47:16;;;;;;;1.33;1.02;;;20.80;99.90;;;;;;4993382;28;20396;-77
2021/09/14 00:49:41;;;;;;;3.60;0.75;;;20.70;99.90;;;;;;4993611;28;20030;-77
2021/09/14 00:52:08;;;;;;;1.20;0.43;;;20.50;99.90;;;;;;4993464;28;20056;-77
2021/09/14 00:54:37;;;;;;;0.63;0.50;;;20.40;99.90;;;;;;4992154;28;20465;-77
2021/09/14 00:57:04;;;;;;;0.45;0.30;;;20.30;99.90;;;;;;4993295;28;20057;-77
2021/09/14 00:59:30;;;;;;;0.65;0.63;;;20.30;99.90;;;;;;4992115;28;20105;-77
2021/09/14 01:01:56;;;;;;;3.40;0.65;;;20.20;99.90;;;;;;5004699;28;20022;-77
2021/09/14 01:04:22;;;;;;;0.40;0.20;;;20.10;99.90;;;;;;4996709;28;20512;-77
2021/09/14 01:06:48;;;;;;;3.00;0.60;;;20.00;99.90;;;;;;5009015;28;20030;-77
2021/09/14 01:09:14;;;;;;;0.75;0.75;;;20.00;99.90;;;;;;4996718;28;20025;-77
2021/09/14 01:11:40;;;;;;;0.50;0.50;;;19.90;99.90;;;;;;5000664;28;20064;-77
2021/09/14 01:14:08;;;;;;;1.77;0.88;;;19.80;99.90;;;;;;5005408;28;20032;-77
2021/09/14 01:16:35;;;;;;;0.60;0.60;;;19.80;99.90;;;;;;4994403;28;20038;-77
2021/09/14 01:19:03;;;;;;;3.10;1.45;;;19.80;99.90;;;;;;4996833;28;20025;-77
2021/09/14 01:21:29;;;;;;;2.47;0.80;;;19.70;99.90;;;;;;5004098;28;20093;-77
2021/09/14 01:23:55;;;;;;;0.65;0.40;;;19.80;99.90;;;;;;4992519;28;20497;-77
2021/09/14 01:26:22;;;;;;;2.28;0.63;;;19.70;99.90;;;;;;5011216;28;20393;-77
2021/09/14 01:28:48;;;;;;;1.90;1.17;;;19.70;99.90;;;;;;4999278;28;20083;-77
2021/09/14 01:31:13;;;;;;;1.58;0.68;;;19.60;99.90;;;;;;4998531;28;20042;-77
2021/09/14 01:33:39;;;;;;;0.63;0.55;;;19.60;99.90;;;;;;5020937;28;20061;-77
2021/09/14 01:36:05;;;;;;;0.65;0.52;;;19.70;99.90;;;;;;5002605;28;20030;-77
2021/09/14 01:38:31;;;;;;;0.80;0.80;;;19.70;99.90;;;;;;5011423;28;20531;-77
2021/09/14 01:40:56;;;;;;;1.17;0.77;;;19.60;99.90;;;;;;4999966;28;20030;-77
2021/09/14 01:43:22;;;;;;;0.20;0.17;;;19.60;99.90;;;;;;5015184;28;20505;-77
2021/09/14 01:45:48;;;;;;;4.85;1.25;;;19.60;99.90;;;;;;5003285;28;20030;-77
2021/09/14 01:48:15;;;;;;;0.22;0.22;;;19.60;99.90;;;;;;5010177;28;20120;-77
2021/09/14 01:50:41;;;;;;;0.10;0.10;;;19.50;99.90;;;;;;4998715;28;20505;-77
2021/09/14 01:53:07;;;;;;;0.95;0.25;;;19.50;99.90;;;;;;5008436;28;20026;-77
2021/09/14 01:55:33;;;;;;;3.65;1.65;;;19.40;99.90;;;;;;4995974;28;20081;-77
2021/09/14 01:57:59;;;;;;;0.85;0.43;;;19.40;99.90;;;;;;5007904;28;20017;-77
2021/09/14 02:00:28;;;;;;;0.57;0.28;;;19.40;99.90;;;;;;5003955;28;20026;-77
2021/09/14 02:43:29;;;;;;;0.75;0.73;;;19.40;99.90;;;;;;4998178;28;20037;-78
2021/09/14 02:59:32;;;;;;;0.32;0.30;;;19.10;99.90;;;;;;5004591;28;20058;-78
2021/09/14 03:01:58;;;;;;;2.70;0.55;;;19.10;99.90;;;;;;4994582;28;20058;-78
2021/09/14 03:04:24;;;;;;;3.00;1.02;;;19.10;99.90;;;;;;5008509;28;20029;-78
2021/09/14 03:06:50;;;;;;;1.75;0.80;;;19.00;99.90;;;;;;4993715;28;20038;-78
2021/09/14 03:09:15;;;;;;;5.63;1.00;;;19.00;99.90;;;;;;5000436;28;20507;-78
2021/09/14 03:11:41;;;;;;;1.08;0.98;;;19.00;99.90;;;;;;5003927;28;20037;-78
2021/09/14 03:14:07;;;;;;;2.25;1.20;;;18.90;99.90;;;;;;5006290;28;20080;-78
2021/09/14 03:16:33;;;;;;;0.90;0.70;;;18.90;99.90;;;;;;5012393;28;20499;-78
2021/09/14 03:18:59;;;;;;;4.82;0.57;;;18.90;99.90;;;;;;4998267;28;20089;-78
2021/09/14 03:21:25;;;;;;;1.23;0.52;;;18.80;99.90;;;;;;5005862;28;20025;-77
2021/09/14 03:23:51;;;;;;;18.70;1.70;;;18.90;99.90;;;;;;5005170;28;20038;-77
2021/09/14 03:26:17;;;;;;;0.10;0.10;;;18.80;99.90;;;;;;4997211;28;20034;-78
2021/09/14 03:28:42;;;;;;;0.40;0.40;;;18.80;99.90;;;;;;5012217;28;20030;-78
2021/09/14 03:31:08;;;;;;;0.85;0.85;;;18.80;99.90;;;;;;4996708;28;20022;-78
2021/09/14 03:33:34;;;;;;;0.75;0.75;;;18.80;99.90;;;;;;4993340;28;20027;-76
2021/09/14 03:36:00;;;;;;;0.75;0.28;;;18.80;99.90;;;;;;5006272;28;20100;-78
2021/09/14 03:38:26;;;;;;;0.95;0.65;;;18.80;99.90;;;;;;4997256;28;20070;-78
2021/09/14 03:40:51;;;;;;;0.90;0.90;;;18.70;99.90;;;;;;5009425;28;20041;-77
2021/09/14 03:43:18;;;;;;;1.13;1.13;;;18.70;99.90;;;;;;5004984;28;20062;-78
2021/09/14 03:45:46;;;;;;;0.82;0.80;;;18.70;99.90;;;;;;5013216;28;20390;-78
2021/09/14 03:48:13;;;;;;;1.23;0.98;;;18.60;99.90;;;;;;4994145;28;20022;-78
2021/09/14 03:50:39;;;;;;;2.75;1.45;;;18.60;99.90;;;;;;5002019;28;20030;-78
2021/09/14 03:53:05;;;;;;;1.27;0.70;;;18.60;99.90;;;;;;5007880;28;20029;-78
2021/09/14 03:55:31;;;;;;;1.85;1.00;;;18.60;99.90;;;;;;5001894;28;20374;-78
2021/09/14 03:57:56;;;;;;;2.17;1.10;;;18.60;99.90;;;;;;5001070;28;20030;-78
2021/09/14 04:00:22;;;;;;;0.57;0.47;;;18.70;99.90;;;;;;4998012;28;20030;-78
2021/09/14 04:06:21;;;;;;;3.90;0.73;;;18.70;99.90;;;;;;4982473;28;20125;-78
2021/09/14 04:11:09;;;;;;;0.70;0.70;;;18.60;99.90;;;;;;4983451;28;20080;-78
2021/09/14 04:13:35;;;;;;;0.38;0.35;;;18.50;99.90;;;;;;5012876;28;20034;-77
2021/09/14 04:16:01;;;;;;;0.30;0.30;;;18.50;99.90;;;;;;5012260;28;20038;-78
2021/09/14 04:18:26;;;;;;;1.90;1.13;;;18.50;99.90;;;;;;5012420;28;20026;-78
2021/09/14 04:20:52;;;;;;;0.65;0.65;;;18.50;99.90;;;;;;5012647;28;20026;-78
2021/09/14 04:23:17;;;;;;;1.25;0.77;;;18.50;99.90;;;;;;5012460;28;20481;-79
2021/09/14 04:25:43;;;;;;;1.27;0.75;;;18.50;99.90;;;;;;5001472;28;20034;-79
2021/09/14 04:28:09;;;;;;;1.27;1.15;;;18.50;99.90;;;;;;5005244;28;20030;-79
2021/09/14 04:30:34;;;;;;;0.88;0.77;;;18.50;99.90;;;;;;5000778;28;20034;-78
2021/09/14 04:33:00;;;;;;;0.75;0.75;;;18.50;99.90;;;;;;5001452;28;20021;-79
2021/09/14 04:35:26;;;;;;;2.60;1.60;;;18.50;99.90;;;;;;5003501;28;20161;-78
2021/09/14 04:37:51;;;;;;;0.80;0.52;;;18.50;99.90;;;;;;5002732;28;20611;-80
2021/09/14 04:40:17;;;;;;;7.63;1.10;;;18.50;99.90;;;;;;4996219;28;20440;-80
2021/09/14 04:42:42;;;;;;;0.40;0.40;;;18.50;99.90;;;;;;5006492;28;20409;-80
2021/09/14 04:45:09;;;;;;;2.85;0.70;;;18.40;99.90;;;;;;5006512;28;20129;-79
2021/09/14 04:47:35;;;;;;;1.80;0.40;;;18.40;99.90;;;;;;4992809;28;20073;-78
2021/09/14 04:50:00;;;;;;;0.38;0.38;;;18.40;99.90;;;;;;4998073;28;20027;-79
2021/09/14 04:52:26;;;;;;;0.38;0.38;;;18.40;99.90;;;;;;5004919;28;20033;-78
2021/09/14 04:54:51;;;;;;;0.38;0.38;;;18.40;99.90;;;;;;4996447;28;20061;-78
2021/09/14 04:57:17;;;;;;;0.88;0.88;;;18.40;99.90;;;;;;5004915;28;20136;-78
2021/09/14 04:59:43;;;;;;;0.77;0.63;;;18.40;99.90;;;;;;5000693;28;20475;-78
2021/09/14 05:02:08;;;;;;;2.05;1.65;;;18.40;99.90;;;;;;4992610;28;20025;-83
2021/09/14 05:04:34;;;;;;;1.20;1.13;;;18.30;99.90;;;;;;5006840;28;20504;-82
2021/09/14 05:06:59;;;;;;;1.45;1.08;;;18.40;99.90;;;;;;5009507;28;20030;-83
2021/09/14 05:09:25;;;;;;;1.50;1.02;;;18.40;99.90;;;;;;5002724;28;20027;-83
2021/09/14 05:11:51;;;;;;;0.85;0.85;;;18.30;99.90;;;;;;5002658;28;20033;-82
2021/09/14 05:14:16;;;;;;;11.20;1.27;;;18.30;99.90;;;;;;5017504;28;20041;-82
2021/09/14 05:16:42;;;;;;;9.55;0.90;;;18.30;99.90;;;;;;5008918;28;20030;-82
2021/09/14 05:19:09;;;;;;;2.25;1.30;;;18.30;99.90;;;;;;5008371;28;20019;-82
2021/09/14 05:21:43;;;;;;;1.40;1.30;;;18.30;99.90;;;;;;5001149;28;20534;-82
2021/09/14 05:24:09;;;;;;;0.95;0.68;;;18.20;99.90;;;;;;5007927;28;20054;-82
2021/09/14 05:26:35;;;;;;;0.32;0.32;;;18.20;99.90;;;;;;5012716;28;20026;-83
2021/09/14 05:29:00;;;;;;;2.70;0.45;;;18.20;99.90;;;;;;5006152;28;20460;-82
2021/09/14 05:31:26;;;;;;;0.22;0.22;;;18.20;99.90;;;;;;5009442;28;20038;-82
2021/09/14 05:33:51;;;;;;;4.55;0.65;;;18.20;99.90;;;;;;5006159;28;20034;-82
2021/09/14 05:36:17;;;;;;;14.38;2.30;;;18.20;99.90;;;;;;5002894;28;20015;-82
2021/09/14 05:38:43;;;;;;;0.85;0.75;;;18.20;99.90;;;;;;5004543;28;20033;-82
2021/09/14 05:41:09;;;;;;;3.85;1.38;;;18.30;99.90;;;;;;5007698;28;20033;-82
2021/09/14 05:43:34;;;;;;;1.13;0.75;;;18.20;99.90;;;;;;5009292;28;20069;-82
2021/09/14 05:46:00;;;;;;;1.95;1.60;;;18.30;99.90;;;;;;4997632;28;20018;-82
2021/09/14 05:48:26;;;;;;;1.15;0.40;;;18.20;99.90;;;;;;4996791;28;20038;-82
2021/09/14 05:50:52;;;;;;;0.30;0.30;;;18.20;99.90;;;;;;5007814;28;20056;-82
2021/09/14 05:53:17;;;;;;;0.52;0.52;;;18.20;99.90;;;;;;5016655;28;20025;-82
2021/09/14 05:55:43;;;;;;;0.73;0.73;;;18.30;99.90;;;;;;5015942;28;20029;-83
2021/09/14 05:58:09;;;;;;;0.43;0.43;;;18.30;99.90;;;;;;5010263;28;20037;-81
2021/09/14 06:00:35;;;;;;;3.97;0.90;;;18.30;99.90;;;;;;4996711;28;20397;-82
2021/09/14 06:03:01;;;;;;;0.20;0.20;;;18.30;99.90;;;;;;4996754;28;20525;-81
2021/09/14 06:05:27;;;;;;;0.60;0.60;;;18.40;99.90;;;;;;4995625;28;20026;-79
2021/09/14 06:07:53;;;;;;;1.75;1.65;;;18.40;99.90;;;;;;4995675;28;20042;-78
2021/09/14 06:10:19;;;;;;;0.50;0.45;;;18.50;99.90;;;;;;4992022;28;20077;-78
2021/09/14 06:12:45;;;;;;;1.20;1.08;;;18.50;99.90;;;;;;4995178;28;20033;-78
2021/09/14 06:15:10;;;;;;;3.38;1.30;;;18.60;99.90;;;;;;4995726;28;20030;-77
2021/09/14 06:17:37;;;;;;;0.73;0.73;;;18.60;99.90;;;;;;4988496;28;20374;-78
2021/09/14 06:20:04;;;;;;;3.42;1.10;;;18.60;99.90;;;;;;4995863;28;20026;-80
2021/09/14 06:22:30;;;;;;;0.82;0.82;;;18.70;99.90;;;;;;4995883;28;20026;-78
2021/09/14 06:24:55;;;;;;;0.98;0.70;;;18.80;99.90;;;;;;4996798;28;20032;-79
2021/09/14 06:27:21;;;;;;;0.80;0.57;;;18.80;99.90;;;;;;4993505;28;20400;-78
2021/09/14 06:29:47;;;;;;;0.50;0.50;;;18.90;99.90;;;;;;4987997;28;20027;-77
2021/09/14 06:32:13;;;;;;;0.57;0.57;;;19.00;99.90;;;;;;4993010;28;20026;-78
2021/09/14 06:34:38;;;;;;;0.20;0.20;;;19.10;99.90;;;;;;4996051;28;20433;-78
2021/09/14 06:37:06;;;;;;;1.77;1.08;;;19.20;99.90;;;;;;5002902;28;20466;-78
2021/09/14 06:39:32;;;;;;;1.02;0.95;;;19.30;99.90;;;;;;4995244;28;20058;-77
2021/09/14 06:41:58;;;;;;;1.67;1.10;;;19.30;99.90;;;;;;4989730;28;20462;-78
2021/09/14 06:44:23;;;;;;;0.55;0.40;;;19.40;99.90;;;;;;4988106;28;20050;-77
2021/09/14 06:46:52;;;;;;;1.85;0.50;;;19.40;99.90;;;;;;4994249;28;20034;-77
2021/09/14 06:49:19;;;;;;;0.63;0.63;;;19.40;99.90;;;;;;4988323;28;20026;-78
2021/09/14 06:51:44;;;;;;;0.50;0.50;;;19.50;99.90;;;;;;4994299;28;20030;-78
2021/09/14 06:54:10;;;;;;;3.05;0.68;;;19.50;99.90;;;;;;4986345;28;20080;-79
2021/09/14 06:56:36;;;;;;;0.30;0.30;;;19.60;99.90;;;;;;4991693;28;20030;-79
2021/09/14 06:59:02;;;;;;;4.40;1.52;;;19.80;99.90;;;;;;4999913;28;20413;-78
2021/09/14 07:01:27;;;;;;;1.40;0.73;;;20.00;99.90;;;;;;4990436;28;20085;-78
2021/09/14 07:03:54;;;;;;;1.75;0.20;;;20.20;99.90;;;;;;4994636;28;20023;-78
2021/09/14 07:06:20;;;;;;;0.45;0.40;;;20.20;99.90;;;;;;5003688;28;20026;-78
2021/09/14 07:08:46;;;;;;;3.20;1.40;;;20.30;99.90;;;;;;5002619;28;20127;-78
2021/09/14 07:11:13;;;;;;;3.50;0.88;;;20.40;99.90;;;;;;4992646;28;20031;-78
2021/09/14 07:13:38;;;;;;;1.55;1.08;;;20.50;99.90;;;;;;4993102;28;20215;-82
2021/09/14 07:16:04;;;;;;;3.85;1.40;;;20.60;99.90;;;;;;4991060;28;20117;-79
2021/09/14 07:18:30;;;;;;;0.77;0.70;;;20.60;99.90;;;;;;4992372;28;20033;-78
2021/09/14 07:20:55;;;;;;;4.28;1.08;;;20.60;99.90;;;;;;4997007;28;20160;-78
2021/09/14 07:23:21;;;;;;;4.35;1.13;;;20.70;99.90;;;;;;4989546;28;20022;-79
2021/09/14 07:25:47;;;;;;;1.67;1.10;;;20.90;99.90;;;;;;4985152;28;20035;-79
2021/09/14 07:28:13;;;;;;;36.90;1.50;;;20.90;99.90;;;;;;4985016;28;20547;-79
2021/09/14 07:30:39;;;;;;;0.73;0.73;;;20.90;99.90;;;;;;4985083;28;20034;-78
2021/09/14 07:33:05;;;;;;;0.73;0.73;;;20.80;99.90;;;;;;4994127;28;20092;-77
2021/09/14 07:35:32;;;;;;;6.18;1.08;;;20.90;99.90;;;;;;4993858;28;20057;-77
2021/09/14 07:37:58;;;;;;;0.50;0.50;;;20.90;99.90;;;;;;4993378;28;20390;-77
2021/09/14 07:40:25;;;;;;;0.88;0.85;;;20.90;99.90;;;;;;5002627;28;20088;-77
2021/09/14 07:42:51;;;;;;;6.53;3.15;;;21.00;99.90;;;;;;4993721;28;20038;-77
2021/09/14 07:45:17;;;;;;;1.27;1.17;;;21.00;99.90;;;;;;4990357;28;20038;-78
2021/09/14 07:47:42;;;;;;;1.13;1.08;;;21.00;99.90;;;;;;4992912;28;20060;-77
2021/09/14 07:50:10;;;;;;;1.55;0.77;;;21.10;99.90;;;;;;4994416;28;20525;-78
2021/09/14 07:52:35;;;;;;;1.05;0.95;;;21.10;99.90;;;;;;5007472;28;20464;-79
2021/09/14 07:55:01;;;;;;;1.45;1.10;;;21.20;99.90;;;;;;4994849;28;20029;-79
2021/09/14 07:57:28;;;;;;;1.80;0.40;;;21.50;99.90;;;;;;4999257;28;20026;-81
2021/09/14 07:59:54;;;;;;;2.40;0.40;;;21.70;99.90;;;;;;4993673;28;20026;-79
2021/09/14 08:02:19;;;;;;;1.55;0.82;;;21.90;99.90;;;;;;4993738;28;20125;-78
2021/09/14 08:04:45;;;;;;;2.08;1.30;;;22.00;99.90;;;;;;4995150;28;20497;-78
2021/09/14 08:07:10;;;;;;;1.65;1.13;;;22.00;99.90;;;;;;4996933;28;20033;-79
2021/09/14 08:09:36;;;;;;;8.57;1.40;;;22.00;99.90;;;;;;4993496;28;20030;-78
2021/09/14 08:12:03;;;;;;;3.17;1.48;;;22.00;99.90;;;;;;4993496;28;20113;-78
2021/09/14 08:14:30;;;;;;;1.38;1.27;;;22.00;99.90;;;;;;5000025;28;20104;-78
2021/09/14 08:16:55;;;;;;;0.65;0.50;;;21.80;99.90;;;;;;4988337;28;20049;-79
2021/09/14 08:19:21;;;;;;;1.90;1.08;;;21.80;99.90;;;;;;4997631;28;20858;-78
2021/09/14 08:21:47;;;;;;;2.97;0.47;;;21.80;99.90;;;;;;4995703;28;20029;-78
2021/09/14 08:24:13;;;;;;;0.75;0.75;;;21.80;99.90;;;;;;4991203;28;20029;-79
2021/09/14 08:26:39;;;;;;;6.57;0.60;;;21.90;99.90;;;;;;5001743;28;20050;-78
2021/09/14 08:29:05;;;;;;;1.00;0.43;;;22.00;99.90;;;;;;4993956;28;20037;-80
2021/09/14 08:31:31;;;;;;;0.57;0.52;;;22.10;99.90;;;;;;4991103;28;20030;-79
2021/09/14 08:33:58;;;;;;;3.42;1.48;;;22.30;99.90;;;;;;4989715;28;20037;-79
2021/09/14 08:36:24;;;;;;;1.30;0.75;;;22.40;99.90;;;;;;4989591;28;20022;-81
2021/09/14 08:38:51;;;;;;;2.88;1.75;;;22.60;99.90;;;;;;5000915;28;20029;-80
2021/09/14 08:41:18;;;;;;;0.50;0.50;;;22.90;99.90;;;;;;4989162;28;20030;-80
2021/09/14 08:43:46;;;;;;;0.70;0.47;;;23.20;99.90;;;;;;4992298;28;20050;-80
2021/09/14 08:46:13;;;;;;;7.47;1.10;;;23.60;99.90;;;;;;4991611;28;20037;-80
2021/09/14 08:48:39;;;;;;;2.15;1.42;;;23.60;99.90;;;;;;5005390;28;20083;-79
2021/09/14 08:51:06;;;;;;;0.25;0.22;;;23.30;99.90;;;;;;4989054;28;20488;-80
2021/09/14 08:53:34;;;;;;;0.55;0.55;;;23.10;99.90;;;;;;4981439;28;20043;-80
2021/09/14 08:56:05;;;;;;;2.28;0.52;;;23.20;99.90;;;;;;4988031;28;20109;-80
2021/09/14 08:58:30;;;;;;;3.60;1.33;;;23.20;99.90;;;;;;5005194;28;20166;-79
2021/09/14 09:00:56;;;;;;;7.10;0.60;;;23.20;99.90;;;;;;4993559;28;20117;-79
2021/09/14 09:03:28;;;;;;;0.60;0.60;;;23.10;99.90;;;;;;4991490;28;20099;-81
2021/09/14 09:05:56;;;;;;;0.43;0.43;;;22.90;99.90;;;;;;4989503;28;20026;-79
2021/09/14 09:08:23;;;;;;;0.82;0.82;;;22.80;99.90;;;;;;4979648;28;20109;-79
2021/09/14 09:11:07;;;;;;;0.20;0.20;;;22.80;99.90;;;;;;4997194;28;20014;-78
2021/09/14 09:13:34;;;;;;;2.72;1.85;;;22.80;99.90;;;;;;5000725;28;20037;-79
2021/09/14 09:16:00;;;;;;;0.60;0.60;;;22.60;99.90;;;;;;4989032;28;20482;-78
2021/09/14 09:18:27;;;;;;;1.17;0.47;;;22.40;99.90;;;;;;4995723;28;20034;-78
2021/09/14 09:21:01;;;;;;;2.75;1.40;;;22.50;99.90;;;;;;5000141;28;20117;-77
2021/09/14 09:23:27;;;;;;;1.30;1.20;;;22.80;99.90;;;;;;4997711;28;20022;-77
2021/09/14 09:26:05;;;;;;;1.08;0.98;;;23.20;99.90;;;;;;5002663;28;20037;-79
2021/09/14 09:28:30;;;;;;;1.55;0.60;;;23.40;99.90;;;;;;4991283;28;20986;-79
2021/09/14 09:30:59;;;;;;;3.22;0.95;;;23.40;99.90;;;;;;4994372;28;20096;-78
2021/09/14 09:33:28;;;;;;;3.90;1.10;;;23.40;99.90;;;;;;4999150;28;20026;-78
2021/09/14 09:36:01;;;;;;;9.05;1.73;;;23.30;99.90;;;;;;4992191;28;20027;-78
2021/09/14 09:38:27;;;;;;;3.25;1.33;;;23.40;99.90;;;;;;4993719;28;20110;-79
2021/09/14 09:40:54;;;;;;;0.63;0.63;;;23.40;99.90;;;;;;4979229;28;20049;-77
2021/09/14 09:43:28;;;;;;;7.78;1.20;;;23.50;99.90;;;;;;4978647;28;20096;-76
2021/09/14 09:46:10;;;;;;;1.65;1.13;;;23.70;99.90;;;;;;4994794;28;20547;-77
2021/09/14 09:48:39;;;;;;;0.40;0.40;;;23.50;99.90;;;;;;5010937;28;20072;-75
2021/09/14 09:51:05;;;;;;;5.95;1.55;;;23.40;99.90;;;;;;4989737;28;20026;-75
2021/09/14 09:53:35;;;;;;;1.17;1.02;;;23.20;99.90;;;;;;4991914;28;20031;-75
2021/09/14 09:56:02;;;;;;;0.15;0.15;;;23.10;99.90;;;;;;4989875;28;20417;-76
2021/09/14 09:58:28;;;;;;;0.82;0.82;;;22.80;99.90;;;;;;4991950;28;20057;-75
2021/09/14 10:01:13;;;;;;;0.45;0.45;;;22.60;99.90;;;;;;4991728;28;20445;-76
2021/09/14 10:04:06;;;;;;;0.30;0.30;;;22.40;99.90;;;;;;4995822;28;20030;-75
2021/09/14 10:06:41;;;;;;;0.45;0.45;;;22.30;99.90;;;;;;5000888;28;20038;-76
2021/09/14 10:09:07;;;;;;;3.90;0.60;;;22.20;99.90;;;;;;4994663;28;20093;-75
2021/09/14 10:11:35;;;;;;;3.05;1.25;;;22.20;99.90;;;;;;4993268;28;20022;-75
2021/09/14 10:14:15;;;;;;;3.58;1.73;;;22.20;99.90;;;;;;4996774;28;20062;-76
2021/09/14 10:16:45;;;;;;;0.88;0.60;;;22.00;99.90;;;;;;4994958;28;20387;-75
2021/09/14 10:19:13;;;;;;;0.90;0.82;;;22.00;99.90;;;;;;4995492;28;20536;-75
2021/09/14 10:21:40;;;;;;;6.50;1.52;;;22.10;99.90;;;;;;4992808;28;20022;-76
2021/09/14 10:24:16;;;;;;;3.67;1.00;;;22.20;99.90;;;;;;4997474;28;20033;-76
2021/09/14 10:26:42;;;;;;;5.07;2.65;;;22.30;99.90;;;;;;4994201;28;20541;-76
2021/09/14 10:29:13;;;;;;;0.73;0.73;;;22.50;99.90;;;;;;4995665;28;20026;-75
2021/09/14 10:31:39;;;;;;;1.88;1.27;;;22.60;99.90;;;;;;5002176;28;20030;-76
2021/09/14 10:34:08;;;;;;;0.60;0.60;;;22.50;99.90;;;;;;5007654;28;20497;-76
2021/09/14 10:36:35;;;;;;;0.95;0.68;;;22.70;99.90;;;;;;4994815;28;20026;-76
2021/09/14 10:39:02;;;;;;;0.98;0.90;;;22.70;99.90;;;;;;5002552;28;20473;-76
2021/09/14 10:41:40;;;;;;;0.50;0.50;;;23.00;99.90;;;;;;5008402;28;20018;-76
2021/09/14 10:44:10;;;;;;;3.45;1.20;;;23.60;99.90;;;;;;4998017;28;20050;-76
2021/09/14 10:46:37;;;;;;;2.63;1.40;;;23.50;99.90;;;;;;4992561;28;20733;-76
2021/09/14 10:49:15;;;;;;;1.75;0.77;;;23.20;99.90;;;;;;4993149;28;20030;-76
2021/09/14 10:51:41;;;;;;;1.05;0.77;;;23.00;99.90;;;;;;4995838;28;20026;-76
2021/09/14 10:54:18;;;;;;;2.70;1.13;;;23.00;99.90;;;;;;5001045;28;20030;-76
2021/09/14 10:56:48;;;;;;;1.92;1.60;;;23.10;99.90;;;;;;4994551;28;20555;-76
2021/09/14 10:59:18;;;;;;;0.88;0.75;;;22.90;99.90;;;;;;4994106;28;20026;-76
2021/09/14 11:01:46;;;;;;;3.95;2.28;;;23.20;99.90;;;;;;4996750;28;20022;-77
2021/09/14 11:04:12;;;;;;;2.28;1.33;;;23.30;99.90;;;;;;4994590;28;20030;-77
2021/09/14 11:06:38;;;;;;;5.80;1.58;;;23.30;99.90;;;;;;4994482;28;20030;-75
2021/09/14 11:09:06;;;;;;;2.20;0.98;;;23.30;99.90;;;;;;4994324;28;20037;-75
2021/09/14 11:11:32;;;;;;;1.95;1.10;;;23.20;99.90;;;;;;4992358;28;20023;-75
2021/09/14 11:13:58;;;;;;;2.28;0.90;;;23.20;99.90;;;;;;4998248;28;20061;-75
2021/09/14 11:16:24;;;;;;;0.65;0.57;;;23.20;99.90;;;;;;4996562;28;20073;-75
2021/09/14 11:18:50;;;;;;;0.57;0.57;;;23.10;99.90;;;;;;4995371;28;20018;-75
2021/09/14 11:21:20;;;;;;;1.63;1.52;;;23.10;99.90;;;;;;5000708;28;20018;-75
2021/09/14 11:23:48;;;;;;;0.80;0.80;;;23.00;99.90;;;;;;4992629;28;20084;-75
2021/09/14 11:26:16;;;;;;;1.90;0.93;;;23.10;99.90;;;;;;5002909;28;20019;-75
2021/09/14 11:28:54;;;;;;;2.25;1.20;;;23.10;99.90;;;;;;4997945;28;20031;-75
2021/09/14 11:31:20;;;;;;;2.00;1.25;;;23.00;99.90;;;;;;4989381;28;20018;-74
2021/09/14 11:33:47;;;;;;;0.85;0.80;;;23.00;99.90;;;;;;5000646;28;20416;-76
2021/09/14 11:36:12;;;;;;;1.80;1.33;;;23.00;99.90;;;;;;4990029;28;20105;-76
2021/09/14 11:38:38;;;;;;;2.83;0.82;;;23.00;99.90;;;;;;4992658;28;20173;-76
2021/09/14 11:41:12;;;;;;;0.73;0.73;;;23.00;99.90;;;;;;4989434;28;20025;-76
2021/09/14 11:43:42;;;;;;;1.50;0.85;;;22.90;99.90;;;;;;4995496;28;20061;-75
2021/09/14 11:46:19;;;;;;;1.65;1.55;;;22.90;99.90;;;;;;4992573;28;20145;-75
2021/09/14 11:48:56;;;;;;;7.20;2.38;;;22.80;99.90;;;;;;5003931;28;20124;-75
2021/09/14 11:51:22;;;;;;;3.75;1.10;;;22.60;99.90;;;;;;4991914;28;20873;-74
2021/09/14 11:53:53;;;;;;;7.35;1.13;;;22.70;99.90;;;;;;4990809;28;20093;-75
2021/09/14 11:56:20;;;;;;;6.15;0.43;;;22.60;99.90;;;;;;4984188;28;20015;-75
2021/09/14 11:58:48;;;;;;;2.92;1.02;;;22.60;99.90;;;;;;4993474;28;20030;-76
2021/09/14 12:01:19;;;;;;;17.25;1.20;;;22.60;99.90;;;;;;4988222;28;20485;-76
2021/09/14 12:03:54;;;;;;;1.92;1.13;;;22.60;99.90;;;;;;4987665;28;20113;-75
2021/09/14 12:06:24;;;;;;;4.53;1.38;;;22.90;99.90;;;;;;4994179;28;20392;-75
2021/09/14 12:08:50;;;;;;;3.03;1.08;;;23.00;99.90;;;;;;4992442;28;20029;-76
2021/09/14 12:11:31;;;;;;;0.40;0.40;;;23.30;99.90;;;;;;4998263;28;20025;-75
2021/09/14 12:13:58;;;;;;;9.50;1.90;;;23.50;99.90;;;;;;4990571;28;20468;-76
2021/09/14 12:16:28;;;;;;;8.00;1.60;;;23.60;99.90;;;;;;4983544;28;20089;-75
2021/09/14 12:19:00;;;;;;;1.60;0.80;;;23.80;99.90;;;;;;4987370;28;20077;-75
2021/09/14 12:21:27;;;;;;;7.22;1.45;;;23.90;99.90;;;;;;5001055;28;20041;-75
2021/09/14 12:23:53;;;;;;;3.10;1.55;;;24.00;99.90;;;;;;4989558;28;20049;-75
2021/09/14 12:26:21;;;;;;;0.75;0.73;;;24.00;99.90;;;;;;4988670;28;20184;-75
2021/09/14 12:28:49;;;;;;;2.78;1.15;;;23.90;99.90;;;;;;4987819;28;20508;-75
2021/09/14 12:31:15;;;;;;;0.50;0.50;;;23.90;99.90;;;;;;5001466;28;20511;-75
2021/09/14 12:33:41;;;;;;;5.63;1.20;;;23.90;99.90;;;;;;4992501;28;20034;-76
2021/09/14 12:36:06;;;;;;;0.60;0.60;;;24.00;99.90;;;;;;4990651;28;20026;-76
2021/09/14 12:38:32;;;;;;;10.70;2.20;;;24.20;99.90;;;;;;4986550;28;20026;-76
2021/09/14 12:40:58;;;;;;;1.02;0.85;;;24.50;99.90;;;;;;4994081;28;20050;-75
2021/09/14 12:43:23;;;;;;;1.15;0.90;;;25.00;99.90;;;;;;4993927;28;20043;-76
2021/09/14 12:45:49;;;;;;;5.75;0.98;;;25.00;99.90;;;;;;5011168;28;20204;-76
2021/09/14 12:48:15;;;;;;;1.85;0.95;;;25.10;99.90;;;;;;5003509;28;20038;-76
2021/09/14 12:50:40;;;;;;;2.13;1.42;;;24.80;99.90;;;;;;5003162;28;20025;-76
2021/09/14 12:53:06;;;;;;;1.75;1.05;;;24.80;99.90;;;;;;4993546;28;20394;-76
2021/09/14 12:55:37;;;;;;;4.35;1.30;;;24.80;99.90;;;;;;4992417;28;20524;-76
2021/09/14 12:58:04;;;;;;;2.47;1.02;;;24.80;99.90;;;;;;4989203;28;20030;-76
2021/09/14 13:00:30;;;;;;;1.15;1.08;;;25.00;99.90;;;;;;4994251;28;20045;-76
2021/09/14 13:02:55;;;;;;;1.33;1.15;;;25.10;99.90;;;;;;5003515;28;20050;-76
2021/09/14 13:05:24;;;;;;;2.78;0.60;;;25.20;99.90;;;;;;4992923;28;20116;-76
2021/09/14 13:07:50;;;;;;;0.93;0.93;;;25.30;99.90;;;;;;4990979;28;20030;-75
2021/09/14 13:10:16;;;;;;;1.38;0.80;;;25.60;99.90;;;;;;4991163;28;20485;-75
2021/09/14 13:12:47;;;;;;;2.15;1.45;;;25.50;99.90;;;;;;4995533;28;20046;-75
2021/09/14 13:17:58;;;;;;;1.27;1.17;;;25.90;99.90;;;;;;4994622;28;20038;-76
2021/09/14 13:20:24;;;;;;;2.50;1.63;;;26.20;99.90;;;;;;5008834;28;20030;-75
2021/09/14 13:22:50;;;;;;;0.52;0.52;;;26.20;99.90;;;;;;4985471;28;20034;-75
2021/09/14 13:25:15;;;;;;;1.00;0.88;;;25.90;99.90;;;;;;5001135;28;20205;-76
2021/09/14 13:27:41;;;;;;;0.52;0.52;;;25.90;99.90;;;;;;4997434;28;20034;-75
2021/09/14 13:30:08;;;;;;;0.77;0.75;;;26.00;99.90;;;;;;4993785;28;20026;-75
2021/09/14 13:32:33;;;;;;;0.65;0.65;;;26.20;99.90;;;;;;4998928;28;20019;-75
2021/09/14 13:34:59;;;;;;;2.60;1.00;;;26.50;99.90;;;;;;4993982;28;20073;-75
2021/09/14 13:37:25;;;;;;;0.88;0.73;;;26.80;99.90;;;;;;4993779;28;20034;-75
2021/09/14 13:39:51;;;;;;;4.47;1.48;;;27.10;99.80;;;;;;5005374;28;20026;-75
2021/09/14 13:42:23;;;;;;;2.58;1.13;;;27.30;99.90;;;;;;4998124;28;20435;-75
2021/09/14 13:47:22;;;;;;;0.45;0.45;;;26.40;99.90;;;;;;5004406;28;20307;-75
2021/09/14 13:49:48;;;;;;;3.78;1.17;;;26.40;99.90;;;;;;4998401;28;20041;-75